Main page
METAR-TAF:

METAR-TAF

Airports :

Rabat–Salé Airport

Rabat, Morocco

latitude: 34-03N, longitude: 006-46W, elevation: 84 m

Current weather observation

The report was made 30 minutes ago, at 11:30 UTC
Wind 6 kt from the North/Northeast, varying between North/Northwest and East/Northeast
Temperature 27°C
Humidity 58%
Pressure 1017 hPa
Visibility: 7000 m

METAR: GMME 211130Z 02006KT 340V060 7000 NSC 27/18 Q1017 NOSIG

Time: 13:00 (12:00 UTC)

Forecast

The report was made 1 hour and 0 minutes ago, at 11:00 UTC
Forecast valid from 21 at 12 UTC to 22 at 18 UTC
Wind 10 kt from the Northwest
Visibility: 7000 m
Temporary
from 21 at 18 UTC to 22 at 06 UTC
Wind 2 kt from variable directions
Broken clouds at a height of 1500 ft
Temporary
from 21 at 21 UTC to 22 at 07 UTC
Visibility: 3000 m
Broken clouds at a height of 800 ft
mist

TAF: GMME 211100Z 2112/2218 32010KT 7000 NSC TEMPO 2118/2206 VRB02KT BKN015 TEMPO 2121/2207 3000 BR BKN008

Weather observations and forecasts of more than 4000 airports (METAR and TAF reports).

The available stations are represented by yellow and red dots on the map.

Hover mouse over dot to see the name of the station.

Then click to see weather observations and forecasts.

To change the map : click on the green buttons with a black cross to zoom in, on the green button with a dash to zoom out, or on the green arrows for adjacent maps.


METAR-TAF: